Aérodrome :
LOGIN :

S'inscrire | Disclaimer

   EN    FR    IT 

 










Légende :    VFR   VFR Marginal   IFR   IFR Intensif   IFR Très Intensif
Visi : 
Plafond : 
>= 8 km
>= 3000ft
5 à 8 km
1000 à 3000 ft
1500m à 5 km
500 à 1000 ft
800 à 1500m
200 à 500 ft
< 800m
< 200 ft
Symboles :   Orages  Brouillard  Fortes neiges  Fortes précipitations  Vent > 20 kt
SIGMETs :   Divers  Orages  Givrage  Turbulence  Onde Orograph.  Cendres Volcan.







- Altitude de l'aérodrome : 499 ft
- Code IATA : TLS
- Voir les cartes d'approche


LFBO - Toulouse / Blagnac

DERNIER METAR :
  • 271300Z AUTO 29012KT 9999 FEW014 BKN027 OVC034 16/14 Q1016 TEMPO 4000 -RADZ BKN008

METARs EXPIRÉS :
  • 271230Z AUTO 27014KT 9999 -RA BKN021 BKN028 BKN035 16/13 Q1016 TEMPO 4000 -RADZ BKN008
  • 271200Z AUTO 31011KT 9999 SCT026 BKN034 BKN040 17/12 Q1016 TEMPO 4000 -RADZ BKN008
  • 271130Z AUTO 29014KT 9999 BKN029 BKN036 OVC042 16/11 Q1016 TEMPO 4000 -RADZ BKN008
  • 271100Z AUTO 28009KT 260V320 9999 SCT022 SCT028 BKN038 17/12 Q1016 NOSIG
  • 271030Z AUTO 28012KT 9999 FEW023 SCT028 BKN034 16/12 Q1016 NOSIG

TAF TAF LFBO
Valide du 27 à 12h jusqu'au 28 à 18h UTC


271100Z 2712/2818 28010KT 9999 SCT025 BKN035
TEMPO 2713/2722 4000 -RADZ BKN008
BECMG 2716/2718 BKN012
BECMG 2807/2809 SCT030 BKN045
PROB40
TEMPO 2810/2818 31015G25KT 4000 SHRA SCT035TCU
ATIS : +33 5 62 74 66 36
Pas de NOTAMs connus pour ce terrain.



MET'MAP, la Météo Aéronautique d'un coup d'oeil ! - Copyright ORBIFLY Décembre 2007 - Disclaimer

ORBIFLY MET'MAP TEAM :

Programmation & Développement : Alexandra Zaïnal
Conception & Développement : Baudouin d'Aumeries
Co-Programmation & Développement : Marc-Olivier Méhu
Soutien technique & logistique : Manuel Goepfert

Contact : metmap@orbifly.com




SOURCES & CREDITS :

   NOAA